createdAt,value
2022-10-02T04:30:59.896Z,15.80
2022-10-02T04:31:59.891Z,15.60
2022-10-02T04:32:59.854Z,14.90
2022-10-02T04:33:59.842Z,15.60
2022-10-02T04:34:59.842Z,15.60
2022-10-02T04:35:59.816Z,16.00
2022-10-02T04:36:59.804Z,15.10
2022-10-02T04:37:59.784Z,15.50
2022-10-02T04:38:59.775Z,15.00
2022-10-02T04:39:59.764Z,15.20
2022-10-02T04:40:59.744Z,15.60
2022-10-02T04:41:59.732Z,14.80
2022-10-02T04:42:59.724Z,15.00
2022-10-02T04:43:59.703Z,14.50
2022-10-02T04:44:59.705Z,14.20
2022-10-02T04:45:59.697Z,13.80
2022-10-02T04:46:59.666Z,14.20
2022-10-02T04:48:06.726Z,14.10
2022-10-02T04:48:59.675Z,13.50
2022-10-02T04:49:59.635Z,13.10
2022-10-02T04:50:59.617Z,13.60
2022-10-02T04:51:59.606Z,13.40
2022-10-02T04:52:59.595Z,15.60
2022-10-02T04:53:59.584Z,12.50
2022-10-02T04:54:59.565Z,12.20
2022-10-02T04:55:59.602Z,12.20
2022-10-02T04:56:59.535Z,12.20
2022-10-02T04:57:59.524Z,11.90
2022-10-02T04:58:59.532Z,11.90
2022-10-02T04:59:59.507Z,12.00
2022-10-02T05:00:59.525Z,11.50
2022-10-02T05:01:59.509Z,11.10
2022-10-02T05:02:59.455Z,11.60
2022-10-02T05:04:03.776Z,10.90
2022-10-02T05:04:59.567Z,9.80
2022-10-02T05:05:59.435Z,10.50
2022-10-02T05:06:59.405Z,11.00
2022-10-02T05:07:59.385Z,10.70
2022-10-02T05:08:59.387Z,10.80
2022-10-02T05:09:59.364Z,10.10
2022-10-02T05:10:59.372Z,9.90
2022-10-02T05:11:59.332Z,10.40
2022-10-02T05:12:59.325Z,10.90
2022-10-02T05:13:59.301Z,10.00
2022-10-02T05:14:59.302Z,10.20
2022-10-02T05:15:59.310Z,9.80
2022-10-02T05:16:59.273Z,9.90
2022-10-02T05:17:59.253Z,10.20
2022-10-02T05:18:59.243Z,10.30
2022-10-02T05:19:59.226Z,10.10
2022-10-02T05:20:59.242Z,10.70
2022-10-02T05:21:59.203Z,10.30
2022-10-02T05:22:59.192Z,9.50
2022-10-02T05:23:59.171Z,9.90
2022-10-02T05:24:59.171Z,10.60
2022-10-02T05:25:59.153Z,10.60
2022-10-02T05:26:59.133Z,10.60
2022-10-02T05:27:59.173Z,9.90
2022-10-02T05:28:59.112Z,9.50
2022-10-02T05:29:59.100Z,10.20
2022-10-02T05:30:59.095Z,10.00
2022-10-02T05:31:59.072Z,9.50
2022-10-02T05:32:59.053Z,9.30
2022-10-02T05:33:59.046Z,9.40
2022-10-02T05:34:59.051Z,10.40
2022-10-02T05:35:59.021Z,10.20
2022-10-02T05:36:59.002Z,10.70
2022-10-02T05:37:59.212Z,9.30
2022-10-02T05:38:58.982Z,9.60
2022-10-02T05:39:58.971Z,9.70
2022-10-02T05:40:58.971Z,9.40
2022-10-02T05:41:58.942Z,9.60
2022-10-02T05:42:58.921Z,9.90
2022-10-02T05:43:58.901Z,9.70
2022-10-02T05:44:59.092Z,9.80
2022-10-02T05:45:58.963Z,8.90
2022-10-02T05:46:59.011Z,9.10
2022-10-02T05:47:58.852Z,9.10
2022-10-02T05:48:58.840Z,9.20
2022-10-02T05:49:58.844Z,8.60
2022-10-02T05:50:58.840Z,9.10
2022-10-02T05:51:58.800Z,9.10
2022-10-02T05:52:58.794Z,9.10
2022-10-02T05:53:58.778Z,9.30
2022-10-02T05:54:58.780Z,9.20
2022-10-02T05:55:58.761Z,9.10
2022-10-02T05:56:58.739Z,8.40
2022-10-02T05:57:58.720Z,8.60
2022-10-02T05:58:58.720Z,8.50
2022-10-02T05:59:58.780Z,10.70
2022-10-02T06:00:58.729Z,9.40
2022-10-02T06:01:58.704Z,9.00
2022-10-02T06:02:58.690Z,9.80
2022-10-02T06:03:58.640Z,9.60
2022-10-02T06:04:58.661Z,8.40
2022-10-02T06:05:58.629Z,8.60
2022-10-02T06:06:58.609Z,8.90
2022-10-02T06:07:58.589Z,8.30
2022-10-02T06:08:58.590Z,8.70
2022-10-02T06:09:58.559Z,8.50
2022-10-02T06:10:58.567Z,8.90
2022-10-02T06:11:58.539Z,9.00
2022-10-02T06:12:58.558Z,8.60
2022-10-02T06:13:58.508Z,9.90
2022-10-02T06:14:58.498Z,8.60
2022-10-02T06:15:58.612Z,8.90
2022-10-02T06:16:58.479Z,8.60
2022-10-02T06:17:58.468Z,9.00
2022-10-02T06:18:58.458Z,8.40
2022-10-02T06:20:03.026Z,8.90
2022-10-02T06:20:59.429Z,8.40
2022-10-02T06:21:58.406Z,8.60
2022-10-02T06:22:58.428Z,8.50
2022-10-02T06:23:58.379Z,8.10
2022-10-02T06:24:58.367Z,8.30
2022-10-02T06:25:58.458Z,8.10
2022-10-02T06:26:58.357Z,8.10
2022-10-02T06:27:58.376Z,8.20
2022-10-02T06:28:58.317Z,8.30
2022-10-02T06:29:58.358Z,7.70
2022-10-02T06:30:58.297Z,8.10
2022-10-02T06:31:58.399Z,8.00
2022-10-02T06:32:58.265Z,7.40
2022-10-02T06:33:58.244Z,8.50
2022-10-02T06:34:58.237Z,9.30
2022-10-02T06:35:58.262Z,10.00
2022-10-02T06:36:58.208Z,24.80
2022-10-02T06:37:58.187Z,17.50
2022-10-02T06:38:58.205Z,10.60
2022-10-02T06:39:58.166Z,8.40
2022-10-02T06:40:58.161Z,9.00
2022-10-02T06:41:58.136Z,8.40
2022-10-02T06:42:58.127Z,11.40
2022-10-02T06:43:58.106Z,14.40
2022-10-02T06:44:58.097Z,19.60
2022-10-02T06:45:58.126Z,16.10
2022-10-02T06:46:58.075Z,9.50
2022-10-02T06:47:58.055Z,13.60
2022-10-02T06:48:58.047Z,14.10
2022-10-02T06:49:58.029Z,8.00
2022-10-02T06:50:58.105Z,7.20
2022-10-02T06:51:58.033Z,6.40
2022-10-02T06:52:57.995Z,7.10
2022-10-02T06:53:57.976Z,6.70
2022-10-02T06:54:57.973Z,6.80
2022-10-02T06:55:57.966Z,6.40
2022-10-02T06:56:57.937Z,6.10
2022-10-02T06:57:57.927Z,6.10
2022-10-02T06:58:57.915Z,5.80
2022-10-02T06:59:57.897Z,5.80
2022-10-02T07:00:57.958Z,5.70
2022-10-02T07:01:57.938Z,5.80
2022-10-02T07:02:57.856Z,6.90
2022-10-02T07:03:57.845Z,5.80
2022-10-02T07:04:57.835Z,5.50
2022-10-02T07:05:57.815Z,5.70
2022-10-02T07:06:57.815Z,5.10
2022-10-02T07:07:57.814Z,5.00
2022-10-02T07:08:57.778Z,6.10
2022-10-02T07:09:57.764Z,5.70
2022-10-02T07:10:57.756Z,5.10
2022-10-02T07:11:57.754Z,5.70
2022-10-02T07:12:57.726Z,5.60
2022-10-02T07:13:57.710Z,5.40
2022-10-02T07:14:57.704Z,5.10
2022-10-02T07:15:57.715Z,4.90
2022-10-02T07:16:57.694Z,5.10
2022-10-02T07:17:57.654Z,5.00
2022-10-02T07:18:57.643Z,5.00
2022-10-02T07:19:57.624Z,5.10
2022-10-02T07:20:57.622Z,5.30
2022-10-02T07:21:57.604Z,5.40
2022-10-02T07:22:57.594Z,5.50
2022-10-02T07:24:02.079Z,5.80
2022-10-02T07:24:58.577Z,8.40
2022-10-02T07:25:57.552Z,5.30
2022-10-02T07:26:57.543Z,7.00
2022-10-02T07:27:57.574Z,6.70
2022-10-02T07:28:57.525Z,5.80
2022-10-02T07:29:57.494Z,5.80
2022-10-02T07:30:57.483Z,5.00
2022-10-02T07:31:57.509Z,4.80
2022-10-02T07:32:57.466Z,5.20
2022-10-02T07:33:57.444Z,5.20
2022-10-02T07:34:57.436Z,4.70
2022-10-02T07:35:57.413Z,5.20
2022-10-02T07:36:57.445Z,4.30
2022-10-02T07:37:57.387Z,5.00
2022-10-02T07:38:57.404Z,5.10
2022-10-02T07:39:57.364Z,6.90
2022-10-02T07:40:59.992Z,4.70
2022-10-02T07:41:57.354Z,6.10
2022-10-02T07:42:57.324Z,4.00
2022-10-02T07:43:57.372Z,6.50
2022-10-02T07:44:57.301Z,5.20
2022-10-02T07:45:57.325Z,4.70
2022-10-02T07:46:57.282Z,4.70
2022-10-02T07:47:57.264Z,5.00
2022-10-02T07:48:57.248Z,5.70
2022-10-02T07:49:57.235Z,5.40
2022-10-02T07:50:57.212Z,4.50
2022-10-02T07:51:57.222Z,4.80
2022-10-02T07:52:57.192Z,4.40
2022-10-02T07:53:57.184Z,5.30
2022-10-02T07:54:57.162Z,4.60
2022-10-02T07:55:57.151Z,4.80
2022-10-02T07:56:57.171Z,4.70
2022-10-02T07:57:57.132Z,4.60
2022-10-02T07:58:57.113Z,4.20
2022-10-02T07:59:57.111Z,4.10
2022-10-02T08:00:57.082Z,4.40
2022-10-02T08:01:57.180Z,4.70
2022-10-02T08:02:57.142Z,4.20
2022-10-02T08:03:57.051Z,4.00
2022-10-02T08:04:57.040Z,6.30
2022-10-02T08:05:57.031Z,4.00
2022-10-02T08:06:57.013Z,3.80
2022-10-02T08:07:57.011Z,4.00
2022-10-02T08:08:56.982Z,5.00
2022-10-02T08:09:56.974Z,3.80
2022-10-02T08:10:56.953Z,4.50
2022-10-02T08:11:56.950Z,3.80
2022-10-02T08:12:56.942Z,4.00
2022-10-02T08:13:56.921Z,3.70
2022-10-02T08:14:56.909Z,4.00
2022-10-02T08:15:56.944Z,3.80
2022-10-02T08:16:56.907Z,3.30
2022-10-02T08:17:58.793Z,3.70
2022-10-02T08:18:57.842Z,4.30
2022-10-02T08:19:56.862Z,3.50
2022-10-02T08:20:56.830Z,3.70
2022-10-02T08:21:56.811Z,3.60
2022-10-02T08:22:56.811Z,3.20
2022-10-02T08:23:56.795Z,2.90
2022-10-02T08:24:56.771Z,3.70
2022-10-02T08:25:56.771Z,3.80
2022-10-02T08:26:56.743Z,3.80
2022-10-02T08:27:56.800Z,3.80
2022-10-02T08:28:56.749Z,3.40
2022-10-02T08:29:56.711Z,3.70
2022-10-02T08:30:56.692Z,3.80
2022-10-02T08:31:56.748Z,3.40
2022-10-02T08:32:56.668Z,4.40
2022-10-02T08:33:56.650Z,3.40
2022-10-02T08:34:56.660Z,3.20
2022-10-02T08:35:56.629Z,3.60
2022-10-02T08:36:56.620Z,3.10
2022-10-02T08:37:56.602Z,3.20
2022-10-02T08:38:56.580Z,3.10
2022-10-02T08:39:56.570Z,3.20
2022-10-02T08:40:56.569Z,3.10
2022-10-02T08:41:56.561Z,3.30
2022-10-02T08:42:56.560Z,3.10
2022-10-02T08:43:56.522Z,3.00
2022-10-02T08:44:56.508Z,3.50
2022-10-02T08:45:56.544Z,3.30
2022-10-02T08:46:56.501Z,3.00
2022-10-02T08:47:56.470Z,2.70
2022-10-02T08:48:56.467Z,2.80
2022-10-02T08:49:56.461Z,3.20
2022-10-02T08:50:56.429Z,2.50
2022-10-02T08:51:56.415Z,2.90
2022-10-02T08:52:56.418Z,3.90
2022-10-02T08:53:56.390Z,3.00
2022-10-02T08:54:56.369Z,3.10
2022-10-02T08:55:56.361Z,2.90
2022-10-02T08:56:56.349Z,2.80
2022-10-02T08:57:56.338Z,3.00
2022-10-02T08:58:56.319Z,3.00
2022-10-02T08:59:56.320Z,3.30
2022-10-02T09:00:56.367Z,2.70
2022-10-02T09:01:59.786Z,3.00
2022-10-02T09:02:56.279Z,3.10
2022-10-02T09:03:56.259Z,3.00
2022-10-02T09:04:56.239Z,2.80
2022-10-02T09:05:56.221Z,4.00
2022-10-02T09:06:56.217Z,2.60
2022-10-02T09:07:56.211Z,3.30
2022-10-02T09:08:56.190Z,2.90
2022-10-02T09:09:56.169Z,2.60
2022-10-02T09:10:56.170Z,3.00
2022-10-02T09:11:56.141Z,2.80
2022-10-02T09:12:56.150Z,2.90
2022-10-02T09:13:56.242Z,2.80
2022-10-02T09:14:58.947Z,2.50
2022-10-02T09:15:56.147Z,2.80
2022-10-02T09:16:56.110Z,2.80
2022-10-02T09:17:56.111Z,2.50
2022-10-02T09:18:56.059Z,2.80
2022-10-02T09:19:56.049Z,2.60
2022-10-02T09:20:56.050Z,4.20
2022-10-02T09:21:56.171Z,2.90
2022-10-02T09:22:56.025Z,2.90
2022-10-02T09:23:56.035Z,3.00
2022-10-02T09:24:55.980Z,3.10
2022-10-02T09:25:55.959Z,3.20
2022-10-02T09:26:55.960Z,2.80
2022-10-02T09:27:56.013Z,3.40
2022-10-02T09:28:55.926Z,2.70
2022-10-02T09:29:55.910Z,3.60
2022-10-02T09:30:55.900Z,2.60
2022-10-02T09:31:55.962Z,2.90
2022-10-02T09:32:55.889Z,3.00
2022-10-02T09:33:55.856Z,2.60
2022-10-02T09:34:55.847Z,2.60
2022-10-02T09:35:55.833Z,2.90
2022-10-02T09:36:55.819Z,2.70
2022-10-02T09:37:55.809Z,2.80
2022-10-02T09:38:55.796Z,3.40
2022-10-02T09:39:55.777Z,2.90
2022-10-02T09:40:55.769Z,2.70
2022-10-02T09:41:55.747Z,2.50
2022-10-02T09:42:55.757Z,2.90
2022-10-02T09:43:55.718Z,3.10
2022-10-02T09:44:59.196Z,2.80
2022-10-02T09:45:56.761Z,2.80
2022-10-02T09:46:55.689Z,3.20
2022-10-02T09:47:55.688Z,2.90
2022-10-02T09:48:55.658Z,3.00
2022-10-02T09:49:55.638Z,2.80
2022-10-02T09:50:55.638Z,3.00
2022-10-02T09:51:55.619Z,2.80
2022-10-02T09:52:55.626Z,2.90
2022-10-02T09:53:55.589Z,2.90
2022-10-02T09:54:55.578Z,4.40
2022-10-02T09:55:55.568Z,2.80
2022-10-02T09:56:55.602Z,3.00
2022-10-02T09:57:55.538Z,3.20
2022-10-02T09:58:55.547Z,2.60
2022-10-02T09:59:55.522Z,3.00
2022-10-02T10:00:55.544Z,2.20
2022-10-02T10:01:55.563Z,2.40
2022-10-02T10:02:55.478Z,2.60
2022-10-02T10:03:55.489Z,2.40
2022-10-02T10:05:05.690Z,2.20
2022-10-02T10:05:56.428Z,2.40
2022-10-02T10:06:55.440Z,1.90
2022-10-02T10:07:55.407Z,2.00
2022-10-02T10:08:55.418Z,2.10
2022-10-02T10:09:55.380Z,2.10
2022-10-02T10:10:55.369Z,1.90
2022-10-02T10:11:55.356Z,1.90
2022-10-02T10:12:55.338Z,2.00
2022-10-02T10:13:55.339Z,1.70
2022-10-02T10:14:55.319Z,1.80
2022-10-02T10:15:55.298Z,2.20
2022-10-02T10:16:55.288Z,2.00
2022-10-02T10:17:55.278Z,1.70
2022-10-02T10:18:55.309Z,2.00
2022-10-02T10:19:55.276Z,1.70
2022-10-02T10:20:55.240Z,1.70
2022-10-02T10:21:55.221Z,1.80
2022-10-02T10:22:55.217Z,1.90
2022-10-02T10:23:55.198Z,1.60
2022-10-02T10:24:55.298Z,1.90
2022-10-02T10:25:55.166Z,1.80
2022-10-02T10:26:55.158Z,1.80
2022-10-02T10:27:55.185Z,2.10
2022-10-02T10:28:55.148Z,1.90
2022-10-02T10:29:55.118Z,2.00
2022-10-02T10:30:55.107Z,1.90
2022-10-02T10:31:55.111Z,1.60
2022-10-02T10:32:55.079Z,2.00
2022-10-02T10:33:55.079Z,1.90
2022-10-02T10:34:55.058Z,1.70
2022-10-02T10:35:55.037Z,2.10
2022-10-02T10:36:55.029Z,2.10
2022-10-02T10:37:55.009Z,2.00
2022-10-02T10:38:55.010Z,1.50
2022-10-02T10:39:54.979Z,1.80
2022-10-02T10:40:54.969Z,1.80
2022-10-02T10:41:54.948Z,1.70
2022-10-02T10:43:08.903Z,1.50
2022-10-02T10:43:55.939Z,1.50
2022-10-02T10:44:54.920Z,1.60
2022-10-02T10:45:54.935Z,1.50
2022-10-02T10:46:55.130Z,1.60
2022-10-02T10:47:54.869Z,1.60
2022-10-02T10:48:54.879Z,1.50
2022-10-02T10:49:54.859Z,1.70
2022-10-02T10:50:54.839Z,1.90
2022-10-02T10:51:54.829Z,1.80
2022-10-02T10:52:54.807Z,2.00
2022-10-02T10:53:59.567Z,1.90
2022-10-02T10:54:55.778Z,1.70
2022-10-02T10:55:54.770Z,1.80
2022-10-02T10:56:54.761Z,1.80
2022-10-02T10:57:54.749Z,1.90
2022-10-02T10:58:54.749Z,1.80
2022-10-02T10:59:54.737Z,1.60
2022-10-02T11:00:54.777Z,1.50
2022-10-02T11:01:54.905Z,1.70
2022-10-02T11:02:54.859Z,1.70
2022-10-02T11:03:54.659Z,1.70
2022-10-02T11:04:54.668Z,1.50
2022-10-02T11:05:54.639Z,1.70
2022-10-02T11:06:54.619Z,1.70
2022-10-02T11:07:54.609Z,1.90
2022-10-02T11:08:54.609Z,2.00
2022-10-02T11:09:54.589Z,1.40
2022-10-02T11:10:54.577Z,1.60
2022-10-02T11:11:54.559Z,2.50
2022-10-02T11:12:54.559Z,1.40
2022-10-02T11:13:54.564Z,2.00
2022-10-02T11:14:54.529Z,1.80
2022-10-02T11:15:54.511Z,2.20
2022-10-02T11:16:54.538Z,1.50
2022-10-02T11:17:54.543Z,1.70
2022-10-02T11:18:54.518Z,1.70
2022-10-02T11:19:54.487Z,1.40
2022-10-02T11:20:54.447Z,1.60
2022-10-02T11:21:54.450Z,1.30
2022-10-02T11:22:54.411Z,1.40
2022-10-02T11:23:54.498Z,1.50
2022-10-02T11:24:54.380Z,1.20
2022-10-02T11:25:54.371Z,1.10
2022-10-02T11:26:54.363Z,1.50
2022-10-02T11:27:54.385Z,1.90
2022-10-02T11:28:54.339Z,1.30
2022-10-02T11:29:54.334Z,1.40
2022-10-02T11:30:54.313Z,1.30
2022-10-02T11:31:54.431Z,1.30
2022-10-02T11:32:54.282Z,1.60
2022-10-02T11:33:54.270Z,1.60
2022-10-02T11:34:54.261Z,1.30
2022-10-02T11:35:54.249Z,1.30
2022-10-02T11:36:54.258Z,1.40
2022-10-02T11:37:54.250Z,1.20
2022-10-02T11:38:54.203Z,1.80
2022-10-02T11:39:54.201Z,1.30
2022-10-02T11:40:54.179Z,1.30
2022-10-02T11:41:54.169Z,1.20
2022-10-02T11:42:54.152Z,1.10
2022-10-02T11:43:54.138Z,1.20
2022-10-02T11:44:54.162Z,1.50
2022-10-02T11:45:54.276Z,1.10
2022-10-02T11:46:54.092Z,1.20
2022-10-02T11:47:54.082Z,1.50
2022-10-02T11:48:54.071Z,1.10
2022-10-02T11:49:54.061Z,1.40
2022-10-02T11:50:54.042Z,1.10
2022-10-02T11:51:54.030Z,1.10
2022-10-02T11:52:54.031Z,2.00
2022-10-02T11:53:54.011Z,1.10
2022-10-02T11:54:53.992Z,1.20
2022-10-02T11:55:53.989Z,1.20
2022-10-02T11:56:53.966Z,1.30
2022-10-02T11:57:53.953Z,1.00
2022-10-02T11:58:53.954Z,1.00
2022-10-02T11:59:53.926Z,1.00
2022-10-02T12:00:53.905Z,1.00
2022-10-02T12:01:54.008Z,1.10
2022-10-02T12:02:54.029Z,1.20
2022-10-02T12:03:53.887Z,1.00
2022-10-02T12:04:53.852Z,1.10
2022-10-02T12:05:53.853Z,1.00
2022-10-02T12:06:53.822Z,1.20
2022-10-02T12:07:53.822Z,1.40
2022-10-02T12:08:53.852Z,1.00
2022-10-02T12:09:53.794Z,1.30
2022-10-02T12:10:53.796Z,1.10
2022-10-02T12:11:53.771Z,2.00
2022-10-02T12:12:53.757Z,1.10
2022-10-02T12:13:53.771Z,2.10
2022-10-02T12:14:53.813Z,1.40
2022-10-02T12:15:53.812Z,1.30
2022-10-02T12:16:53.862Z,1.70
2022-10-02T12:17:53.714Z,1.10
2022-10-02T12:18:53.691Z,1.30
2022-10-02T12:19:53.672Z,1.10
2022-10-02T12:20:53.654Z,1.30
2022-10-02T12:21:53.654Z,1.30
2022-10-02T12:22:53.646Z,1.50
2022-10-02T12:23:53.664Z,1.10
2022-10-02T12:24:55.000Z,1.10
2022-10-02T12:25:53.600Z,1.30
2022-10-02T12:26:53.644Z,2.10
2022-10-02T12:27:53.765Z,1.10
2022-10-02T12:28:53.577Z,1.30
2022-10-02T12:29:53.550Z,1.30
2022-10-02T12:30:53.545Z,1.20
2022-10-02T12:31:53.660Z,1.20
2022-10-02T12:32:53.647Z,2.50
2022-10-02T12:33:56.654Z,1.20
2022-10-02T12:34:53.486Z,1.20
2022-10-02T12:35:53.476Z,1.20
2022-10-02T12:36:53.475Z,1.10
2022-10-02T12:37:53.517Z,1.10
2022-10-02T12:38:53.495Z,1.10
2022-10-02T12:39:53.474Z,1.30
2022-10-02T12:40:53.472Z,0.90
2022-10-02T12:41:53.396Z,1.10
2022-10-02T12:42:53.376Z,1.00
2022-10-02T12:43:53.365Z,1.00
2022-10-02T12:44:53.455Z,1.10
2022-10-02T12:45:53.343Z,0.90
2022-10-02T12:46:53.535Z,0.90
2022-10-02T12:47:53.294Z,0.90
2022-10-02T12:48:53.295Z,1.00
2022-10-02T12:49:53.265Z,1.00
2022-10-02T12:50:53.254Z,1.10
2022-10-02T12:51:53.245Z,0.70
2022-10-02T12:52:53.275Z,1.00
2022-10-02T12:53:53.245Z,0.90
2022-10-02T12:54:53.206Z,1.00
2022-10-02T12:55:53.184Z,1.00
2022-10-02T12:56:53.177Z,0.90
2022-10-02T12:57:53.172Z,1.10
2022-10-02T12:58:53.156Z,0.90
2022-10-02T12:59:53.142Z,1.80
2022-10-02T13:00:53.177Z,1.00
2022-10-02T13:01:53.169Z,1.00
2022-10-02T13:03:01.657Z,0.90
2022-10-02T13:03:54.085Z,1.20
2022-10-02T13:04:53.075Z,0.90
2022-10-02T13:05:53.056Z,0.90
2022-10-02T13:06:53.036Z,1.00
2022-10-02T13:07:53.028Z,1.10
2022-10-02T13:08:53.036Z,1.20
2022-10-02T13:09:53.007Z,1.10
2022-10-02T13:10:52.991Z,1.30
2022-10-02T13:11:55.906Z,1.50
2022-10-02T13:12:52.998Z,1.10
2022-10-02T13:13:53.004Z,1.60
2022-10-02T13:14:52.983Z,1.10
2022-10-02T13:15:52.945Z,1.10
2022-10-02T13:16:53.079Z,1.20
2022-10-02T13:17:52.900Z,1.20
2022-10-02T13:18:52.897Z,1.50
2022-10-02T13:19:52.866Z,1.20
2022-10-02T13:20:52.888Z,1.50
2022-10-02T13:21:52.837Z,1.30
2022-10-02T13:22:52.835Z,1.00
2022-10-02T13:23:52.830Z,0.90
2022-10-02T13:24:52.817Z,1.20
2022-10-02T13:25:52.798Z,1.20
2022-10-02T13:26:52.788Z,1.00
2022-10-02T13:27:52.800Z,1.20
2022-10-02T13:28:52.767Z,1.20
2022-10-02T13:29:52.747Z,1.00
2022-10-02T13:30:52.728Z,1.10
2022-10-02T13:31:52.781Z,2.30
2022-10-02T13:32:52.698Z,1.20
2022-10-02T13:33:52.689Z,1.00
2022-10-02T13:34:52.689Z,1.20
2022-10-02T13:35:52.670Z,1.50
2022-10-02T13:36:52.671Z,1.50
2022-10-02T13:37:52.636Z,1.10
2022-10-02T13:38:52.639Z,1.20
2022-10-02T13:39:52.635Z,1.00
2022-10-02T13:40:52.599Z,1.20
2022-10-02T13:41:52.588Z,1.20
2022-10-02T13:42:52.612Z,1.20
2022-10-02T13:43:55.291Z,1.20
2022-10-02T13:44:53.589Z,1.20
2022-10-02T13:45:52.576Z,1.30
2022-10-02T13:46:52.579Z,1.40
2022-10-02T13:47:52.509Z,1.10
2022-10-02T13:48:52.560Z,1.30
2022-10-02T13:49:52.481Z,1.20
2022-10-02T13:50:52.470Z,1.10
2022-10-02T13:51:52.460Z,1.50
2022-10-02T13:52:52.439Z,1.20
2022-10-02T13:53:52.451Z,1.40
2022-10-02T13:54:52.460Z,1.30
2022-10-02T13:55:52.410Z,0.90
2022-10-02T13:56:52.391Z,0.90
2022-10-02T13:57:52.380Z,1.40
2022-10-02T13:58:52.372Z,0.80
2022-10-02T13:59:52.355Z,0.90
2022-10-02T14:00:52.390Z,0.90
2022-10-02T14:01:52.342Z,1.00
2022-10-02T14:02:52.331Z,0.90
2022-10-02T14:03:52.428Z,0.90
2022-10-02T14:04:52.285Z,1.30
2022-10-02T14:05:57.085Z,1.00
2022-10-02T14:06:53.261Z,0.90
2022-10-02T14:07:52.273Z,0.90
2022-10-02T14:08:52.262Z,0.90
2022-10-02T14:09:52.231Z,1.00
2022-10-02T14:10:52.413Z,0.90
2022-10-02T14:11:52.212Z,1.00
2022-10-02T14:12:52.182Z,0.80
2022-10-02T14:13:52.193Z,1.00
2022-10-02T14:14:52.158Z,1.20
2022-10-02T14:15:52.161Z,1.00
2022-10-02T14:16:52.651Z,1.10
2022-10-02T14:17:52.142Z,1.00
2022-10-02T14:18:52.125Z,1.00
2022-10-02T14:19:52.124Z,1.00
2022-10-02T14:20:52.103Z,0.90
2022-10-02T14:21:52.096Z,1.00
2022-10-02T14:22:52.055Z,1.00
2022-10-02T14:23:52.063Z,1.00
2022-10-02T14:24:52.039Z,1.00
2022-10-02T14:25:53.024Z,1.00
2022-10-02T14:26:52.017Z,1.10
2022-10-02T14:27:52.036Z,1.00
2022-10-02T14:28:52.017Z,1.00
2022-10-02T14:29:51.973Z,0.90
2022-10-02T14:30:51.959Z,1.00
2022-10-02T14:31:52.007Z,1.50
2022-10-02T14:32:51.925Z,1.10
2022-10-02T14:33:51.947Z,1.10
2022-10-02T14:34:51.914Z,1.00
2022-10-02T14:35:51.896Z,1.00
2022-10-02T14:36:51.888Z,0.90
2022-10-02T14:37:51.867Z,1.20
2022-10-02T14:38:51.856Z,0.70
2022-10-02T14:39:51.856Z,0.80
2022-10-02T14:40:51.828Z,0.90
2022-10-02T14:41:51.848Z,1.00
2022-10-02T14:42:51.798Z,0.90
2022-10-02T14:43:51.806Z,0.80
2022-10-02T14:44:51.797Z,1.00
2022-10-02T14:45:51.849Z,0.90
2022-10-02T14:46:51.758Z,0.80
2022-10-02T14:47:51.747Z,0.70
2022-10-02T14:48:51.726Z,0.80
2022-10-02T14:49:51.735Z,0.80
2022-10-02T14:50:51.698Z,0.90
2022-10-02T14:51:51.688Z,0.80
2022-10-02T14:52:51.677Z,1.00
2022-10-02T14:53:51.668Z,0.90
2022-10-02T14:54:51.658Z,0.90
2022-10-02T14:55:51.638Z,1.00
2022-10-02T14:56:51.628Z,0.80
2022-10-02T14:57:51.617Z,0.90
2022-10-02T14:58:51.597Z,0.90
2022-10-02T14:59:51.598Z,0.90
2022-10-02T15:00:51.641Z,1.10
2022-10-02T15:01:51.559Z,0.90
2022-10-02T15:02:51.547Z,1.10
2022-10-02T15:03:51.745Z,0.90
2022-10-02T15:04:51.547Z,1.00
2022-10-02T15:05:51.670Z,0.90
2022-10-02T15:06:51.488Z,1.20
2022-10-02T15:07:51.488Z,1.20
2022-10-02T15:08:51.473Z,6.10
2022-10-02T15:09:51.469Z,4.90
2022-10-02T15:10:51.440Z,4.10
2022-10-02T15:11:51.440Z,2.00
2022-10-02T15:12:51.409Z,1.60
2022-10-02T15:13:51.418Z,1.00
2022-10-02T15:14:51.399Z,1.80
2022-10-02T15:15:51.396Z,0.90
2022-10-02T15:16:51.360Z,1.30
2022-10-02T15:17:51.489Z,1.00
2022-10-02T15:18:51.339Z,1.60
2022-10-02T15:19:51.338Z,1.10
2022-10-02T15:20:51.312Z,1.20
2022-10-02T15:21:51.299Z,1.00
2022-10-02T15:22:51.407Z,1.10
2022-10-02T15:23:51.269Z,1.10
2022-10-02T15:24:51.264Z,1.20
2022-10-02T15:25:51.248Z,1.10
2022-10-02T15:26:51.219Z,0.90
2022-10-02T15:27:51.357Z,2.30
2022-10-02T15:28:51.226Z,1.10
2022-10-02T15:29:51.209Z,1.20
2022-10-02T15:30:51.169Z,1.20
2022-10-02T15:31:51.189Z,1.30
2022-10-02T15:32:51.150Z,1.20
2022-10-02T15:33:51.139Z,1.40
2022-10-02T15:34:51.129Z,1.50
2022-10-02T15:35:51.138Z,1.40
2022-10-02T15:36:51.089Z,1.00
2022-10-02T15:37:51.092Z,1.50
2022-10-02T15:38:51.068Z,1.30
2022-10-02T15:39:51.071Z,1.20
2022-10-02T15:40:51.039Z,2.30
2022-10-02T15:41:51.040Z,1.70
2022-10-02T15:42:53.195Z,1.30
2022-10-02T15:43:52.009Z,3.50
2022-10-02T15:44:50.990Z,1.70
2022-10-02T15:45:51.058Z,1.50
2022-10-02T15:46:50.967Z,1.60
2022-10-02T15:47:50.951Z,1.20
2022-10-02T15:48:52.605Z,4.70
2022-10-02T15:49:50.941Z,2.80
2022-10-02T15:50:50.929Z,3.20
2022-10-02T15:51:50.903Z,1.20
2022-10-02T15:52:50.882Z,1.90
2022-10-02T15:53:50.878Z,1.90
2022-10-02T15:54:50.861Z,1.80
2022-10-02T15:55:50.861Z,1.90
2022-10-02T15:56:50.841Z,1.10
2022-10-02T15:57:50.821Z,1.00
2022-10-02T15:58:50.811Z,1.60
2022-10-02T15:59:50.801Z,1.20
2022-10-02T16:00:50.823Z,1.50
2022-10-02T16:01:50.842Z,1.30
2022-10-02T16:02:50.755Z,1.30
2022-10-02T16:03:50.755Z,1.40
2022-10-02T16:04:50.742Z,1.10
2022-10-02T16:05:50.732Z,1.30
2022-10-02T16:06:50.708Z,1.20
2022-10-02T16:07:50.702Z,1.30
2022-10-02T16:08:50.682Z,1.30
2022-10-02T16:09:50.691Z,1.30
2022-10-02T16:10:50.663Z,1.40
2022-10-02T16:11:50.641Z,1.60
2022-10-02T16:12:50.631Z,1.10
2022-10-02T16:13:50.620Z,1.40
2022-10-02T16:14:50.620Z,1.30
2022-10-02T16:15:50.591Z,1.40
2022-10-02T16:16:50.603Z,1.40
2022-10-02T16:17:50.572Z,1.80
2022-10-02T16:18:50.543Z,1.30
2022-10-02T16:19:50.565Z,1.20
2022-10-02T16:20:50.533Z,1.60
2022-10-02T16:21:50.512Z,1.40
2022-10-02T16:22:50.503Z,1.60
2022-10-02T16:23:50.494Z,1.30
2022-10-02T16:24:50.473Z,1.20
2022-10-02T16:25:50.475Z,1.30
2022-10-02T16:26:50.443Z,1.20
2022-10-02T16:27:50.514Z,1.40
2022-10-02T16:28:50.424Z,1.20
2022-10-02T16:29:50.412Z,0.90
2022-10-02T16:30:50.415Z,1.40
2022-10-02T16:31:50.462Z,1.00
2022-10-02T16:32:50.364Z,1.10
2022-10-02T16:33:50.365Z,1.10
2022-10-02T16:34:50.344Z,1.10
2022-10-02T16:35:50.353Z,1.20
2022-10-02T16:36:50.333Z,1.20
2022-10-02T16:37:50.328Z,1.20
2022-10-02T16:38:50.295Z,1.50
2022-10-02T16:39:50.274Z,2.50
2022-10-02T16:40:50.291Z,1.30
2022-10-02T16:41:50.271Z,3.30
2022-10-02T16:42:50.277Z,1.20
2022-10-02T16:43:50.254Z,1.10
2022-10-02T16:44:50.215Z,0.80
2022-10-02T16:45:50.292Z,1.10
2022-10-02T16:46:50.184Z,1.10
2022-10-02T16:47:50.174Z,1.60
2022-10-02T16:48:50.153Z,1.60
2022-10-02T16:49:50.142Z,1.50
2022-10-02T16:50:50.135Z,1.20
2022-10-02T16:51:50.114Z,1.00
2022-10-02T16:52:50.117Z,1.20
2022-10-02T16:53:50.094Z,1.20
2022-10-02T16:54:50.083Z,1.00
2022-10-02T16:55:50.071Z,1.30
2022-10-02T16:56:50.053Z,1.30
2022-10-02T16:57:50.043Z,1.10
2022-10-02T16:58:50.036Z,1.80
2022-10-02T16:59:50.003Z,1.20
2022-10-02T17:00:50.037Z,1.20
2022-10-02T17:02:13.265Z,1.60
2022-10-02T17:02:51.051Z,1.30
2022-10-02T17:03:49.954Z,1.10
2022-10-02T17:04:49.943Z,1.40
2022-10-02T17:05:49.933Z,1.50
2022-10-02T17:06:49.914Z,1.60
2022-10-02T17:07:49.910Z,1.80
2022-10-02T17:08:49.883Z,1.60
2022-10-02T17:09:49.880Z,1.80
2022-10-02T17:10:49.862Z,2.00
2022-10-02T17:11:49.857Z,1.60
2022-10-02T17:12:49.832Z,7.70
2022-10-02T17:13:49.821Z,2.70
2022-10-02T17:14:49.800Z,1.90
2022-10-02T17:15:49.812Z,2.30
2022-10-02T17:16:49.819Z,2.70
2022-10-02T17:17:49.771Z,4.10
2022-10-02T17:18:49.752Z,3.30
2022-10-02T17:19:49.742Z,2.80
2022-10-02T17:20:49.732Z,3.10
2022-10-02T17:21:49.771Z,3.00
2022-10-02T17:22:49.722Z,2.80
2022-10-02T17:23:49.691Z,2.20
2022-10-02T17:24:49.671Z,2.30
2022-10-02T17:25:49.674Z,2.40
2022-10-02T17:26:49.643Z,2.20
2022-10-02T17:27:49.680Z,2.20
2022-10-02T17:28:49.619Z,2.40
2022-10-02T17:29:49.660Z,3.60
2022-10-02T17:30:49.611Z,23.00
2022-10-02T17:31:49.615Z,14.40
2022-10-02T17:32:49.571Z,10.90
2022-10-02T17:33:49.582Z,12.20
2022-10-02T17:34:49.542Z,8.40
2022-10-02T17:35:49.531Z,10.60
2022-10-02T17:36:49.530Z,6.00
2022-10-02T17:37:49.501Z,3.30
2022-10-02T17:38:49.499Z,3.00
2022-10-02T17:39:49.482Z,3.70
2022-10-02T17:40:49.620Z,2.20
2022-10-02T17:41:49.461Z,2.30
2022-10-02T17:42:49.440Z,2.90
2022-10-02T17:43:49.431Z,2.90
2022-10-02T17:44:49.421Z,2.30
2022-10-02T17:45:49.472Z,2.80
2022-10-02T17:46:49.389Z,2.60